DLH1650 EDDM-LROP
Flight info
| Callsign | DLH1650 |
|---|---|
| Flight time | N/A |
| Altitude | 35000 |
| Route | KIRDI2E/08R KIRDI DCT BUWOQ DCT OBFEZ DCT STEIN DCT TEGRI DCT LAMIT DCT TOSVI |
| Aircraft | A320/M-SDE3FGHIRWY/LB1 |
Departure
| Time | 2026-05-01 15:21 |
|---|---|
| Airport | Munich Airport (EDDM) |
Arrival
| Time | N/A |
|---|---|
| Airport | Bucharest Henri Coandă International Airport (LROP) |
| Time | Latitude | Longitude | Altitude | Speed | Heading |
|---|---|---|---|---|---|
| 2026-05-01 15:19 | 48.34272 | 11.75231 | 1461 ft | 8 kts | 174° |
| 2026-05-01 15:19 | 48.34183 | 11.75248 | 1464 ft | 7 kts | 172° |
| 2026-05-01 15:19 | 48.34135 | 11.75258 | 1461 ft | 7 kts | 172° |
| 2026-05-01 15:20 | 48.34080 | 11.75340 | 1472 ft | 11 kts | 81° |
| 2026-05-01 15:20 | 48.34094 | 11.75461 | 1471 ft | 14 kts | 81° |
| 2026-05-01 15:20 | 48.34122 | 11.75813 | 1464 ft | 66 kts | 83° |
| 2026-05-01 15:21 | 48.34205 | 11.76822 | 1470 ft | 124 kts | 84° |
| 2026-05-01 15:21 | 48.34317 | 11.78336 | 1471 ft | 167 kts | 83° |
| 2026-05-01 15:21 | 48.34452 | 11.80137 | 1903 ft | 174 kts | 83° |
| 2026-05-01 15:21 | 48.34571 | 11.81944 | 2543 ft | 176 kts | 84° |
| 2026-05-01 15:22 | 48.34852 | 11.85883 | 3331 ft | 214 kts | 84° |
| 2026-05-01 15:22 | 48.35030 | 11.88241 | 3680 ft | 241 kts | 83° |
| 2026-05-01 15:22 | 48.35236 | 11.90875 | 4162 ft | 264 kts | 84° |
| 2026-05-01 15:23 | 48.35352 | 11.93674 | 4966 ft | 266 kts | 95° |
| 2026-05-01 15:23 | 48.34965 | 11.96311 | 6288 ft | 250 kts | 111° |
| 2026-05-01 15:23 | 48.34268 | 11.98648 | 7338 ft | 247 kts | 115° |
| 2026-05-01 15:23 | 48.33505 | 12.00951 | 8178 ft | 247 kts | 115° |
| 2026-05-01 15:24 | 48.32711 | 12.03351 | 8668 ft | 265 kts | 115° |
| 2026-05-01 15:24 | 48.31867 | 12.05895 | 9285 ft | 275 kts | 114° |
| 2026-05-01 15:24 | 48.31031 | 12.08485 | 10108 ft | 278 kts | 113° |
| 2026-05-01 15:24 | 48.30208 | 12.11122 | 10859 ft | 281 kts | 112° |
| 2026-05-01 15:25 | 48.29393 | 12.13795 | 11604 ft | 283 kts | 111° |
| 2026-05-01 15:25 | 48.28571 | 12.16538 | 12332 ft | 287 kts | 111° |
| 2026-05-01 15:25 | 48.27759 | 12.19280 | 13050 ft | 291 kts | 111° |
| 2026-05-01 15:25 | 48.26940 | 12.22058 | 13774 ft | 294 kts | 110° |
| 2026-05-01 15:26 | 48.26101 | 12.24891 | 14470 ft | 297 kts | 110° |
| 2026-05-01 15:26 | 48.25255 | 12.27741 | 15104 ft | 300 kts | 110° |
| 2026-05-01 15:26 | 48.24402 | 12.30607 | 15750 ft | 302 kts | 110° |
| 2026-05-01 15:26 | 48.23682 | 12.33573 | 16358 ft | 303 kts | 100° |
| 2026-05-01 15:27 | 48.23403 | 12.36709 | 16661 ft | 315 kts | 89° |
| 2026-05-01 15:27 | 48.23371 | 12.40117 | 16798 ft | 333 kts | 88° |
| 2026-05-01 15:27 | 48.23344 | 12.43645 | 16931 ft | 351 kts | 88° |
| 2026-05-01 15:28 | 48.23269 | 12.51272 | 17519 ft | 373 kts | 89° |
| 2026-05-01 15:28 | 48.23217 | 12.55194 | 18034 ft | 377 kts | 89° |
| 2026-05-01 15:28 | 48.22963 | 12.59121 | 18552 ft | 382 kts | 96° |
| 2026-05-01 15:29 | 48.22205 | 12.67074 | 19505 ft | 388 kts | 96° |
| 2026-05-01 15:29 | 48.21822 | 12.71106 | 19987 ft | 390 kts | 95° |
| 2026-05-01 15:29 | 48.21053 | 12.79177 | 20897 ft | 396 kts | 95° |
| 2026-05-01 15:30 | 48.20844 | 12.87450 | 21778 ft | 398 kts | 86° |
| 2026-05-01 15:31 | 48.21103 | 13.04150 | 23591 ft | 406 kts | 85° |
| 2026-05-01 15:31 | 48.21221 | 13.12693 | 24325 ft | 411 kts | 85° |
| 2026-05-01 15:32 | 48.21323 | 13.21282 | 24989 ft | 415 kts | 85° |
| 2026-05-01 15:32 | 48.21430 | 13.29972 | 25646 ft | 419 kts | 85° |
| 2026-05-01 15:33 | 48.21586 | 13.43162 | 26677 ft | 424 kts | 85° |
| 2026-05-01 15:34 | 48.21707 | 13.56486 | 27579 ft | 430 kts | 85° |